Time;durP1;ratioP1;P1;durP2;ratioP2;P2;SDS_P1;SDS_P2;PMS_P1;PMS_P2;Temp;Humidity;BMP_temperature;BMP_pressure;BME280_temperature;BME280_humidity;BME280_pressure;Samples;Min_cycle;Max_cycle;Signal;HPM_P1;HPM_P2
2023/08/11 00:02:19;;;;;;;3.72;2.53;;;;;;;17.09;54.55;94291.16;5076305;28;20035;-76
2023/08/11 00:04:45;;;;;;;6.07;2.70;;;;;;;17.12;54.13;94287.78;5074179;28;20109;-80
2023/08/11 00:07:10;;;;;;;4.93;3.08;;;;;;;17.09;55.55;94277.72;5075175;28;20055;-78
2023/08/11 00:09:36;;;;;;;6.10;3.10;;;;;;;17.10;55.04;94271.25;5074951;28;20036;-79
2023/08/11 00:12:01;;;;;;;3.25;2.95;;;;;;;17.15;54.89;94271.03;5072256;28;20041;-79
2023/08/11 00:14:27;;;;;;;4.78;3.15;;;;;;;17.25;54.91;94288.56;5075720;28;20978;-79
2023/08/11 00:16:52;;;;;;;3.63;2.88;;;;;;;17.15;55.11;94268.34;5073271;28;20558;-78
2023/08/11 00:19:18;;;;;;;4.70;3.75;;;;;;;17.20;55.54;94279.97;5074415;28;20024;-77
2023/08/11 00:21:43;;;;;;;7.10;3.38;;;;;;;17.21;55.35;94278.84;5073874;28;20645;-78
2023/08/11 00:24:09;;;;;;;4.43;3.33;;;;;;;17.16;56.19;94272.56;5073958;28;20606;-78
2023/08/11 00:26:35;;;;;;;3.95;3.65;;;;;;;17.20;55.96;94271.91;5075514;28;20031;-78
2023/08/11 00:29:00;;;;;;;5.28;3.17;;;;;;;17.06;56.69;94275.72;5065619;28;20518;-78
2023/08/11 00:31:25;;;;;;;3.47;3.17;;;;;;;16.84;57.31;94265.50;5075087;28;20105;-78
2023/08/11 00:33:51;;;;;;;4.43;3.70;;;;;;;16.89;57.30;94276.00;5073057;28;20126;-78
2023/08/11 00:36:17;;;;;;;4.28;3.03;;;;;;;16.77;56.65;94271.44;5075678;28;20093;-77
2023/08/11 00:38:43;;;;;;;4.28;3.78;;;;;;;16.79;56.08;94275.72;5074577;28;20039;-78
2023/08/11 00:41:09;;;;;;;4.72;3.50;;;;;;;16.66;56.37;94269.59;5076232;28;20070;-79
2023/08/11 00:43:34;;;;;;;6.07;4.22;;;;;;;16.73;56.40;94273.25;5071887;28;20468;-76
2023/08/11 00:46:12;;;;;;;7.13;3.25;;;;;;;16.84;56.85;94287.00;5076884;28;20040;-79
2023/08/11 00:48:39;;;;;;;3.78;2.78;;;;;;;16.74;56.99;94277.50;5034063;28;20039;-79
2023/08/11 00:51:05;;;;;;;6.15;3.05;;;;;;;16.69;56.15;94275.06;5008243;28;20146;-77
2023/08/11 00:53:33;;;;;;;5.10;3.03;;;;;;;16.83;55.04;94295.38;5079418;28;20028;-78
2023/08/11 00:56:00;;;;;;;4.45;3.42;;;;;;;16.83;55.13;94298.84;5076285;28;20044;-75
2023/08/11 00:58:26;;;;;;;4.10;2.72;;;;;;;16.79;55.40;94289.13;5080118;28;20101;-78
2023/08/11 01:00:52;;;;;;;5.35;3.15;;;;;;;16.81;55.37;94287.69;5077545;28;20574;-76
2023/08/11 01:03:18;;;;;;;9.27;3.15;;;;;;;16.86;55.22;94283.97;5079794;28;20032;-78
2023/08/11 01:05:52;;;;;;;4.93;2.60;;;;;;;16.79;55.32;94279.19;5078426;28;20035;-77
2023/08/11 01:08:27;;;;;;;2.67;2.42;;;;;;;16.83;54.90;94280.06;5079361;28;20023;-78
2023/08/11 01:11:26;;;;;;;3.40;2.60;;;;;;;16.85;54.93;94280.50;5077432;28;20040;-79
2023/08/11 01:14:09;;;;;;;5.95;2.80;;;;;;;16.91;54.93;94286.44;5070831;28;20044;-78
2023/08/11 01:16:36;;;;;;;2.72;2.47;;;;;;;16.82;55.75;94273.13;5078826;28;20035;-78
2023/08/11 01:19:06;;;;;;;3.42;3.13;;;;;;;16.84;56.10;94281.63;5070828;28;20043;-77
2023/08/11 01:21:36;;;;;;;3.35;2.50;;;;;;;16.79;56.31;94281.06;5078444;28;20047;-78
2023/08/11 01:24:02;;;;;;;6.07;2.85;;;;;;;16.79;56.68;94289.13;5078147;28;20066;-77
2023/08/11 01:26:28;;;;;;;3.50;2.90;;;;;;;16.80;56.25;94296.09;5078308;28;20032;-78
2023/08/11 01:28:54;;;;;;;3.25;2.17;;;;;;;16.73;56.06;94285.91;5077676;27;20097;-77
2023/08/11 01:31:19;;;;;;;2.55;2.33;;;;;;;16.71;55.89;94294.31;5069756;28;20032;-80
2023/08/11 01:33:47;;;;;;;3.28;2.35;;;;;;;16.72;55.41;94293.19;5077142;28;20035;-77
2023/08/11 01:36:13;;;;;;;3.45;2.92;;;;;;;16.66;55.42;94285.72;5078760;28;20066;-79
2023/08/11 01:38:38;;;;;;;4.13;2.78;;;;;;;16.68;55.44;94291.50;5078072;28;20488;-78
2023/08/11 01:41:06;;;;;;;7.03;2.47;;;;;;;16.64;55.39;94279.88;5078706;28;20451;-77
2023/08/11 01:43:33;;;;;;;4.65;2.60;;;;;;;16.57;55.61;94277.00;5079544;28;20036;-77
2023/08/11 01:45:59;;;;;;;3.65;2.60;;;;;;;16.57;55.65;94279.69;5077503;28;20404;-77
2023/08/11 01:48:26;;;;;;;4.80;2.50;;;;;;;16.58;55.58;94291.97;5081017;28;20028;-77
2023/08/11 01:50:52;;;;;;;4.13;3.05;;;;;;;16.51;55.62;94278.34;5076642;28;20032;-79
2023/08/11 01:53:18;;;;;;;3.28;2.42;;;;;;;16.36;56.06;94271.00;5077191;28;20019;-78
2023/08/11 01:55:44;;;;;;;3.00;2.70;;;;;;;16.46;56.33;94281.28;5078484;28;20089;-78
2023/08/11 01:58:10;;;;;;;3.47;2.75;;;;;;;16.44;55.97;94284.28;5079651;28;20494;-77
2023/08/11 02:00:36;;;;;;;3.03;2.70;;;;;;;16.46;56.08;94276.69;5079849;28;20098;-79
2023/08/11 02:03:02;;;;;;;4.53;3.03;;;;;;;16.36;56.36;94279.06;5076930;28;20615;-79
2023/08/11 02:05:29;;;;;;;4.57;2.58;;;;;;;16.39;56.18;94292.56;5080999;28;20023;-76
2023/08/11 02:07:55;;;;;;;5.65;3.00;;;;;;;16.23;56.94;94281.69;5078126;28;20036;-77
2023/08/11 02:10:21;;;;;;;4.43;2.70;;;;;;;16.33;56.47;94282.41;5077178;28;20124;-77
2023/08/11 02:12:47;;;;;;;2.47;2.13;;;;;;;16.21;56.40;94275.91;5080294;28;20055;-76
2023/08/11 02:15:13;;;;;;;2.85;2.55;;;;;;;16.25;56.49;94284.84;5078415;27;20028;-77
2023/08/11 02:17:39;;;;;;;5.57;3.00;;;;;;;16.06;56.77;94239.03;5078362;28;20036;-76
2023/08/11 02:20:17;;;;;;;3.90;2.17;;;;;;;16.14;56.63;94256.91;5077186;28;20024;-78
2023/08/11 02:22:43;;;;;;;2.53;2.33;;;;;;;16.37;56.63;94280.63;5078929;28;20117;-76
2023/08/11 02:25:09;;;;;;;3.63;2.40;;;;;;;16.36;56.81;94289.78;5079244;28;20127;-77
2023/08/11 02:27:35;;;;;;;4.05;2.50;;;;;;;16.30;56.55;94276.59;5076682;28;20479;-77
2023/08/11 02:30:04;;;;;;;2.78;2.05;;;;;;;16.38;55.88;94279.50;5078129;28;20518;-78
2023/08/11 02:32:32;;;;;;;4.38;2.40;;;;;;;16.43;55.81;94293.47;5077181;28;20034;-77
2023/08/11 02:34:57;;;;;;;6.75;2.80;;;;;;;16.35;56.21;94290.91;5077118;28;20043;-75
2023/08/11 02:37:23;;;;;;;2.92;2.28;;;;;;;16.39;55.97;94281.06;5077951;28;20427;-78
2023/08/11 02:39:48;;;;;;;2.80;2.40;;;;;;;16.26;56.35;94281.06;5076638;28;20032;-76
2023/08/11 02:42:13;;;;;;;5.93;2.22;;;;;;;16.40;56.21;94279.94;5076507;28;20032;-77
2023/08/11 02:44:39;;;;;;;4.22;2.50;;;;;;;16.45;56.63;94301.19;5077529;28;20023;-77
2023/08/11 02:47:05;;;;;;;2.53;1.98;;;;;;;16.37;56.66;94294.84;5081595;28;20031;-77
2023/08/11 02:49:30;;;;;;;1.80;1.70;;;;;;;16.27;56.83;94288.00;5017032;28;20032;-77
2023/08/11 02:51:55;;;;;;;5.00;1.95;;;;;;;16.40;56.44;94291.47;5039186;28;20584;-75
2023/08/11 02:54:21;;;;;;;3.33;1.90;;;;;;;16.29;56.98;94283.06;5090346;27;20043;-77
2023/08/11 02:56:47;;;;;;;2.30;1.85;;;;;;;16.50;56.29;94292.91;5075968;28;20162;-76
2023/08/11 02:59:13;;;;;;;3.30;1.85;;;;;;;16.47;56.27;94301.63;5075968;28;20012;-77
2023/08/11 03:01:39;;;;;;;2.65;2.38;;;;;;;16.39;56.95;94297.16;5074843;28;20064;-77
2023/08/11 03:04:05;;;;;;;2.88;1.95;;;;;;;16.42;56.28;94293.81;5075247;28;20119;-75
2023/08/11 03:06:31;;;;;;;2.92;2.20;;;;;;;16.44;56.91;94292.34;5076533;28;20437;-77
2023/08/11 03:08:56;;;;;;;2.10;1.90;;;;;;;16.39;56.81;94281.84;5076268;28;20048;-79
2023/08/11 03:11:21;;;;;;;4.22;2.17;;;;;;;16.48;56.08;94295.13;5078390;28;20020;-78
2023/08/11 03:13:47;;;;;;;4.03;1.95;;;;;;;16.45;56.11;94306.56;5075134;28;20088;-78
2023/08/11 03:16:12;;;;;;;4.53;2.42;;;;;;;16.18;56.29;94257.78;5077544;28;20048;-78
2023/08/11 03:18:39;;;;;;;2.95;2.03;;;;;;;16.54;56.20;94312.56;5077689;28;20038;-77
2023/08/11 03:21:05;;;;;;;3.92;2.30;;;;;;;16.50;56.57;94314.38;5077976;28;20043;-76
2023/08/11 03:23:30;;;;;;;4.40;2.35;;;;;;;16.43;56.66;94306.13;5077375;28;20028;-78
2023/08/11 03:25:55;;;;;;;3.00;2.20;;;;;;;16.46;56.99;94313.50;5077568;27;20175;-78
2023/08/11 03:28:21;;;;;;;4.75;2.45;;;;;;;16.55;56.80;94311.47;5074285;28;20032;-79
2023/08/11 03:30:46;;;;;;;3.17;1.92;;;;;;;16.54;57.02;94309.91;5075141;28;20768;-77
2023/08/11 03:33:12;;;;;;;3.33;2.40;;;;;;;16.58;57.10;94311.56;5076852;28;20055;-78
2023/08/11 03:35:37;;;;;;;3.03;2.10;;;;;;;16.65;56.38;94305.63;5076549;28;20054;-79
2023/08/11 03:38:03;;;;;;;1.70;1.60;;;;;;;16.55;57.53;94306.09;5078206;28;20390;-77
2023/08/11 03:40:29;;;;;;;4.38;2.08;;;;;;;16.51;56.99;94305.22;5076998;28;20066;-79
2023/08/11 03:42:55;;;;;;;3.70;2.20;;;;;;;16.60;57.07;94316.59;5076504;28;20051;-77
2023/08/11 03:45:20;;;;;;;2.30;1.88;;;;;;;16.51;57.32;94299.84;5077543;28;20036;-76
2023/08/11 03:47:45;;;;;;;5.15;2.15;;;;;;;16.55;57.48;94314.16;5077712;28;20106;-78
2023/08/11 03:50:11;;;;;;;2.13;1.67;;;;;;;16.53;57.91;94313.69;5080445;28;20019;-76
2023/08/11 03:52:37;;;;;;;3.05;2.10;;;;;;;16.56;57.84;94305.75;5076039;28;20536;-79
2023/08/11 03:55:09;;;;;;;4.80;1.90;;;;;;;16.47;57.54;94291.69;5075380;28;20051;-77
2023/08/11 03:57:38;;;;;;;1.83;1.65;;;;;;;16.59;57.98;94315.03;5074944;28;20042;-78
2023/08/11 04:00:09;;;;;;;2.75;1.70;;;;;;;16.63;58.14;94322.06;5078600;28;20036;-78
2023/08/11 04:02:36;;;;;;;2.00;1.60;;;;;;;16.65;58.11;94309.09;5075625;28;20028;-77
2023/08/11 04:05:01;;;;;;;3.67;1.95;;;;;;;16.61;58.34;94302.06;5074596;28;20023;-78
2023/08/11 04:07:27;;;;;;;1.70;1.45;;;;;;;16.76;58.38;94314.78;5075927;28;20036;-78
2023/08/11 04:09:52;;;;;;;2.13;1.55;;;;;;;16.72;58.16;94309.28;5076221;28;20040;-79
2023/08/11 04:12:18;;;;;;;2.08;1.70;;;;;;;16.64;58.42;94294.09;5077504;28;20100;-78
2023/08/11 04:14:43;;;;;;;3.30;2.17;;;;;;;16.81;58.10;94317.25;5076529;28;20024;-77
2023/08/11 04:17:12;;;;;;;3.00;1.98;;;;;;;16.80;58.19;94317.56;5077064;28;20033;-77
2023/08/11 04:19:37;;;;;;;1.80;1.60;;;;;;;16.73;58.55;94302.03;5074550;28;20043;-78
2023/08/11 04:22:06;;;;;;;1.98;1.77;;;;;;;16.65;58.96;94305.63;5075875;28;20415;-78
2023/08/11 04:24:31;;;;;;;1.67;1.58;;;;;;;16.54;59.44;94291.09;5079835;28;20453;-77
2023/08/11 04:26:56;;;;;;;6.15;2.00;;;;;;;16.61;59.55;94310.91;5079927;28;20040;-78
2023/08/11 04:29:22;;;;;;;2.63;1.60;;;;;;;16.53;60.10;94308.31;5096532;27;20500;-78
2023/08/11 04:31:47;;;;;;;2.85;1.98;;;;;;;16.64;59.47;94314.81;5081761;28;20062;-77
2023/08/11 04:34:14;;;;;;;4.55;1.60;;;;;;;16.48;59.80;94297.81;5080058;28;20036;-78
2023/08/11 04:36:39;;;;;;;7.07;1.85;;;;;;;16.52;59.89;94321.00;5078320;28;20542;-79
2023/08/11 04:39:05;;;;;;;2.13;1.65;;;;;;;16.47;60.58;94326.59;5080471;28;20043;-76
2023/08/11 04:41:31;;;;;;;2.25;1.48;;;;;;;16.52;60.06;94328.25;5078837;28;20028;-77
2023/08/11 04:43:57;;;;;;;2.80;1.65;;;;;;;16.44;60.51;94321.88;5081501;28;20502;-76
2023/08/11 04:46:23;;;;;;;4.65;1.73;;;;;;;16.46;60.57;94316.19;5079690;28;20028;-77
2023/08/11 04:48:48;;;;;;;3.67;2.05;;;;;;;16.52;60.35;94333.63;5078910;28;20033;-77
2023/08/11 04:51:13;;;;;;;2.00;1.50;;;;;;;16.42;60.92;94320.66;5077887;28;20032;-78
2023/08/11 04:53:39;;;;;;;5.05;2.03;;;;;;;16.23;60.69;94294.38;5080090;28;20138;-78
2023/08/11 04:56:05;;;;;;;4.75;2.25;;;;;;;16.42;60.94;94318.75;5078925;28;20425;-78
2023/08/11 04:58:33;;;;;;;6.93;2.22;;;;;;;16.53;60.73;94329.81;5081249;28;20031;-77
2023/08/11 05:00:59;;;;;;;2.25;1.98;;;;;;;16.56;60.47;94329.16;5069367;28;20075;-78
2023/08/11 05:03:25;;;;;;;3.78;1.88;;;;;;;16.50;60.75;94325.13;5077599;28;20200;-78
2023/08/11 05:05:51;;;;;;;2.40;2.20;;;;;;;16.47;60.45;94309.69;5079632;28;20040;-77
2023/08/11 05:08:17;;;;;;;3.08;1.70;;;;;;;16.72;60.18;94332.72;5078442;28;20519;-78
2023/08/11 05:10:42;;;;;;;2.38;1.70;;;;;;;16.74;60.29;94333.13;5077412;28;20167;-78
2023/08/11 05:13:08;;;;;;;3.63;2.05;;;;;;;16.68;59.61;94321.84;5078713;28;20493;-77
2023/08/11 05:15:33;;;;;;;3.63;1.40;;;;;;;16.76;59.93;94333.59;5078514;27;20075;-77
2023/08/11 05:17:58;;;;;;;2.72;1.92;;;;;;;16.68;60.46;94332.56;5079018;28;20035;-78
2023/08/11 05:20:24;;;;;;;2.35;2.15;;;;;;;16.94;60.16;94347.53;5079116;28;20111;-78
2023/08/11 05:22:52;;;;;;;2.83;2.13;;;;;;;16.73;60.49;94334.25;5079814;28;20082;-78
2023/08/11 05:25:20;;;;;;;4.60;2.20;;;;;;;16.80;60.43;94342.53;5076224;28;20139;-80
2023/08/11 05:27:47;;;;;;;4.03;2.60;;;;;;;16.77;60.15;94356.63;5085795;28;20092;-79
2023/08/11 05:30:13;;;;;;;3.42;2.20;;;;;;;16.92;59.99;94355.91;5075083;28;20166;-77
2023/08/11 05:32:38;;;;;;;3.97;2.55;;;;;;;17.17;58.91;94357.44;5075193;28;20024;-78
2023/08/11 05:35:05;;;;;;;4.45;2.30;;;;;;;17.22;59.29;94361.81;5076327;28;20086;-78
2023/08/11 05:37:32;;;;;;;3.70;2.17;;;;;;;17.15;59.83;94354.34;5075968;28;20789;-76
2023/08/11 05:39:58;;;;;;;4.63;2.03;;;;;;;17.22;59.50;94355.63;5074386;28;20651;-78
2023/08/11 05:42:24;;;;;;;6.57;2.65;;;;;;;17.33;58.93;94359.41;5074078;28;20081;-77
2023/08/11 05:44:50;;;;;;;3.05;2.40;;;;;;;17.38;58.91;94361.88;5071464;28;20474;-77
2023/08/11 05:47:15;;;;;;;3.38;2.15;;;;;;;17.40;59.20;94365.00;5076777;28;21144;-76
2023/08/11 05:49:41;;;;;;;7.43;2.20;;;;;;;17.32;58.26;94372.06;5073224;28;20139;-76
2023/08/11 05:52:06;;;;;;;5.70;2.78;;;;;;;17.22;58.96;94369.09;5068383;28;20032;-78
2023/08/11 05:54:32;;;;;;;2.45;2.13;;;;;;;17.28;58.84;94365.03;5075826;28;20066;-77
2023/08/11 05:56:57;;;;;;;2.53;2.33;;;;;;;17.33;58.52;94379.03;5076936;28;20054;-78
2023/08/11 05:59:24;;;;;;;5.47;2.17;;;;;;;17.36;58.39;94377.53;5074549;28;20490;-77
2023/08/11 06:01:50;;;;;;;4.43;2.50;;;;;;;17.23;59.01;94373.34;5079509;28;20403;-76
2023/08/11 06:04:16;;;;;;;3.10;2.47;;;;;;;17.25;59.11;94379.94;5075832;28;20131;-77
2023/08/11 06:06:41;;;;;;;2.88;2.28;;;;;;;17.15;60.23;94367.00;5075245;28;20374;-78
2023/08/11 06:09:07;;;;;;;7.70;2.63;;;;;;;17.23;59.71;94374.13;5073460;28;20051;-78
2023/08/11 06:11:33;;;;;;;2.40;2.20;;;;;;;17.35;59.06;94376.00;5079184;28;21184;-78
2023/08/11 06:13:59;;;;;;;2.95;2.50;;;;;;;17.29;58.09;94355.84;5077761;28;20128;-78
2023/08/11 06:16:24;;;;;;;3.13;2.83;;;;;;;17.47;58.05;94384.00;5074884;28;20346;-76
2023/08/11 06:18:50;;;;;;;9.63;2.30;;;;;;;17.27;58.32;94352.72;5075957;28;20131;-78
2023/08/11 06:21:17;;;;;;;2.72;2.50;;;;;;;17.16;58.54;94361.25;5077317;28;20492;-77
2023/08/11 06:23:43;;;;;;;5.72;2.50;;;;;;;17.09;59.88;94369.09;5075311;28;20033;-78
2023/08/11 06:26:08;;;;;;;2.85;2.47;;;;;;;17.19;58.54;94365.19;5079291;28;20020;-76
2023/08/11 06:28:33;;;;;;;3.35;3.03;;;;;;;17.39;58.01;94371.50;5076902;28;20031;-77
2023/08/11 06:31:01;;;;;;;9.45;2.28;;;;;;;17.48;57.59;94377.50;5075376;28;20047;-77
2023/08/11 06:33:27;;;;;;;4.63;2.90;;;;;;;17.48;56.99;94372.13;5075678;28;20750;-78
2023/08/11 06:35:53;;;;;;;4.28;2.55;;;;;;;17.40;56.92;94375.75;5076892;28;20145;-77
2023/08/11 06:38:18;;;;;;;4.57;2.70;;;;;;;17.52;57.85;94386.44;5073211;28;20681;-76
2023/08/11 06:40:44;;;;;;;4.60;2.85;;;;;;;17.58;56.58;94377.81;5074894;28;20032;-76
2023/08/11 06:43:09;;;;;;;6.15;3.45;;;;;;;17.67;56.74;94385.72;5077074;28;20500;-78
2023/08/11 06:45:35;;;;;;;5.20;2.75;;;;;;;17.80;56.51;94389.91;5074382;28;20036;-78
2023/08/11 06:48:00;;;;;;;3.00;2.80;;;;;;;17.91;56.89;94392.88;5074122;28;20029;-79
2023/08/11 06:50:26;;;;;;;5.20;2.70;;;;;;;18.01;55.89;94392.41;5078462;28;20542;-78
2023/08/11 06:52:51;;;;;;;4.57;3.72;;;;;;;18.07;56.17;94395.63;5075042;28;20830;-77
2023/08/11 06:55:17;;;;;;;4.93;3.17;;;;;;;17.08;55.21;94265.41;5078355;28;20491;-77
2023/08/11 06:57:42;;;;;;;9.43;3.10;;;;;;;17.91;56.01;94374.81;5075637;28;20085;-78
2023/08/11 07:00:10;;;;;;;5.10;3.65;;;;;;;18.17;56.96;94379.75;5076885;28;20512;-78
2023/08/11 07:02:35;;;;;;;6.70;4.20;;;;;;;18.20;56.01;94380.94;5078945;28;20491;-77
2023/08/11 07:05:02;;;;;;;5.88;3.08;;;;;;;18.19;56.14;94398.22;5076573;28;20015;-77
2023/08/11 07:07:27;;;;;;;5.03;3.20;;;;;;;18.13;55.58;94381.56;5013141;28;20038;-78
2023/08/11 07:09:53;;;;;;;7.00;3.55;;;;;;;18.49;54.62;94407.44;4975043;28;20050;-78
2023/08/11 07:12:18;;;;;;;5.78;3.03;;;;;;;18.54;53.55;94404.47;4990253;28;20114;-77
2023/08/11 07:14:44;;;;;;;3.75;3.15;;;;;;;18.07;53.91;94401.78;5075035;28;20024;-78
2023/08/11 07:17:10;;;;;;;7.25;2.97;;;;;;;18.18;54.29;94396.69;5076770;28;20035;-76
2023/08/11 07:19:36;;;;;;;5.78;4.32;;;;;;;18.02;53.43;94396.66;5085065;27;20496;-78
2023/08/11 07:22:01;;;;;;;4.57;3.78;;;;;;;18.20;53.83;94397.09;5074505;28;20497;-78
2023/08/11 07:24:27;;;;;;;4.68;3.50;;;;;;;18.26;53.62;94399.19;5077576;28;20392;-78
2023/08/11 07:26:52;;;;;;;9.63;4.18;;;;;;;18.21;52.99;94407.53;5072696;28;20491;-78
2023/08/11 07:29:18;;;;;;;4.82;3.83;;;;;;;18.12;54.54;94388.06;5066931;28;20028;-78
2023/08/11 07:31:45;;;;;;;4.78;3.50;;;;;;;18.14;53.50;94374.28;5068418;28;20039;-78
2023/08/11 07:34:11;;;;;;;4.65;3.75;;;;;;;18.38;53.64;94401.03;5082736;27;20426;-77
2023/08/11 07:36:37;;;;;;;5.25;4.05;;;;;;;18.44;53.79;94391.53;5058541;28;20036;-77
2023/08/11 07:39:08;;;;;;;6.93;4.05;;;;;;;18.46;54.09;94389.28;5060585;28;20032;-78
2023/08/11 07:41:34;;;;;;;7.28;4.53;;;;;;;18.71;54.70;94408.75;5066784;28;20023;-77
2023/08/11 07:44:00;;;;;;;4.43;3.83;;;;;;;18.54;51.85;94382.94;5066231;28;20044;-77
2023/08/11 07:46:26;;;;;;;7.13;3.35;;;;;;;18.76;51.90;94408.50;5070148;28;20323;-78
2023/08/11 07:48:51;;;;;;;3.83;3.08;;;;;;;18.84;49.50;94413.69;5069891;28;20609;-78
2023/08/11 07:51:17;;;;;;;4.35;3.67;;;;;;;18.85;49.68;94422.56;5068067;28;20043;-77
2023/08/11 07:53:44;;;;;;;6.85;3.17;;;;;;;18.87;51.43;94404.91;5067250;28;20109;-78
2023/08/11 07:56:11;;;;;;;3.80;3.33;;;;;;;19.10;51.45;94420.44;5072176;28;20016;-77
2023/08/11 07:58:37;;;;;;;5.05;3.60;;;;;;;19.12;50.91;94408.16;5073014;28;20177;-78
2023/08/11 08:01:02;;;;;;;5.90;3.40;;;;;;;19.25;50.19;94406.13;5075685;28;20037;-77
2023/08/11 08:03:28;;;;;;;5.68;3.17;;;;;;;19.38;49.26;94402.16;5073806;28;20032;-78
2023/08/11 08:05:53;;;;;;;4.47;3.33;;;;;;;19.02;48.81;94419.47;5073035;28;20449;-78
2023/08/11 08:08:18;;;;;;;7.30;3.50;;;;;;;19.12;48.88;94412.75;5072895;28;20028;-78
2023/08/11 08:10:44;;;;;;;4.07;3.25;;;;;;;19.28;48.81;94403.50;5076166;28;20433;-78
2023/08/11 08:13:09;;;;;;;4.38;2.90;;;;;;;19.15;48.42;94406.66;5074951;28;20059;-77
2023/08/11 08:15:35;;;;;;;3.03;2.47;;;;;;;19.22;49.25;94412.19;5077731;28;20044;-78
2023/08/11 08:18:00;;;;;;;2.72;2.20;;;;;;;19.36;48.74;94406.34;5076771;28;20554;-76
2023/08/11 08:20:26;;;;;;;2.45;2.25;;;;;;;18.87;48.16;94369.88;5077916;28;20055;-78
2023/08/11 08:22:51;;;;;;;2.70;2.33;;;;;;;19.21;47.05;94410.66;5076058;28;20125;-78
2023/08/11 08:25:17;;;;;;;3.60;2.80;;;;;;;19.10;47.00;94409.66;5073637;28;20438;-76
2023/08/11 08:27:42;;;;;;;6.28;3.05;;;;;;;19.03;47.50;94414.88;5073240;28;20044;-76
2023/08/11 08:30:12;;;;;;;2.55;2.05;;;;;;;19.15;47.33;94409.38;5077261;28;20055;-78
2023/08/11 08:32:39;;;;;;;3.97;2.67;;;;;;;19.12;46.87;94402.75;5079690;28;20039;-76
2023/08/11 08:35:09;;;;;;;3.33;2.60;;;;;;;19.37;47.99;94407.88;5082505;28;20580;-75
2023/08/11 08:37:35;;;;;;;3.50;2.45;;;;;;;19.43;47.97;94393.78;5073423;28;20043;-78
2023/08/11 08:40:01;;;;;;;4.18;2.83;;;;;;;19.58;46.91;94387.56;5085641;28;20154;-77
2023/08/11 08:42:27;;;;;;;4.85;2.67;;;;;;;19.81;46.62;94397.63;5081030;28;20564;-78
2023/08/11 08:44:54;;;;;;;3.70;2.22;;;;;;;19.87;45.81;94405.06;5070325;28;20080;-76
2023/08/11 08:47:21;;;;;;;3.92;2.70;;;;;;;19.90;44.73;94400.88;5076252;28;20028;-76
2023/08/11 08:49:48;;;;;;;5.15;2.40;;;;;;;19.84;46.31;94372.63;5082764;28;20037;-77
2023/08/11 08:52:15;;;;;;;3.17;2.25;;;;;;;20.07;46.08;94392.31;5074261;28;20047;-76
2023/08/11 08:54:41;;;;;;;3.50;2.70;;;;;;;20.21;46.46;94398.00;5087938;28;20028;-77
2023/08/11 08:57:10;;;;;;;18.55;3.15;;;;;;;20.15;45.48;94405.59;5076068;28;20105;-75
2023/08/11 08:59:37;;;;;;;3.85;2.63;;;;;;;19.74;46.33;94404.47;5075156;28;20054;-75
2023/08/11 09:02:03;;;;;;;4.65;2.67;;;;;;;19.60;46.53;94389.91;5073674;28;20471;-74
2023/08/11 09:04:29;;;;;;;4.68;2.15;;;;;;;19.95;45.40;94406.75;5072416;28;20048;-77
2023/08/11 09:06:55;;;;;;;3.10;2.38;;;;;;;20.25;45.60;94404.25;5089282;28;20589;-78
2023/08/11 09:09:21;;;;;;;3.08;2.20;;;;;;;20.40;44.28;94399.84;5074595;28;20131;-77
2023/08/11 09:11:48;;;;;;;2.67;2.47;;;;;;;19.99;45.49;94401.44;5084988;28;20116;-78
2023/08/11 09:14:16;;;;;;;5.85;2.55;;;;;;;20.22;45.56;94404.97;5076181;28;21549;-77
2023/08/11 09:16:42;;;;;;;3.00;2.67;;;;;;;20.33;44.73;94384.31;5078546;28;20130;-78
2023/08/11 09:19:11;;;;;;;4.43;3.00;;;;;;;20.39;44.55;94385.56;5075672;28;20356;-77
2023/08/11 09:21:37;;;;;;;4.50;2.75;;;;;;;20.54;44.75;94395.47;5078204;28;20063;-76
2023/08/11 09:24:03;;;;;;;2.30;2.10;;;;;;;20.72;44.80;94384.16;5094783;27;20127;-77
2023/08/11 09:26:29;;;;;;;4.50;2.60;;;;;;;21.03;43.69;94400.09;5075211;28;20029;-76
2023/08/11 09:28:55;;;;;;;7.40;3.03;;;;;;;20.72;41.94;94384.94;5073801;28;20185;-77
2023/08/11 09:31:24;;;;;;;3.40;2.75;;;;;;;20.40;43.80;94389.84;5080292;28;20547;-76
2023/08/11 09:33:51;;;;;;;2.30;2.08;;;;;;;20.21;43.68;94376.41;5077838;28;20036;-78
2023/08/11 09:36:17;;;;;;;3.22;2.92;;;;;;;20.49;44.62;94389.59;5073105;28;20044;-75
2023/08/11 09:38:48;;;;;;;4.40;2.80;;;;;;;20.58;44.71;94388.19;5084960;28;20528;-75
2023/08/11 09:41:14;;;;;;;4.90;3.05;;;;;;;20.59;44.16;94376.25;5076958;28;20105;-77
2023/08/11 09:43:45;;;;;;;4.78;3.13;;;;;;;20.79;44.07;94390.44;5078727;28;20037;-77
2023/08/11 09:46:11;;;;;;;3.95;3.22;;;;;;;20.66;44.63;94374.78;5006154;28;20110;-75
2023/08/11 09:48:36;;;;;;;4.60;3.22;;;;;;;20.65;44.42;94384.03;5009938;28;20096;-78
2023/08/11 09:51:10;;;;;;;3.10;2.80;;;;;;;20.67;44.46;94398.78;5076665;27;20051;-76
2023/08/11 09:53:40;;;;;;;3.08;2.80;;;;;;;20.97;43.81;94396.16;5078639;28;20024;-77
2023/08/11 09:56:08;;;;;;;6.35;2.80;;;;;;;20.97;44.43;94386.09;4992371;28;20072;-78
2023/08/11 09:58:38;;;;;;;7.22;2.53;;;;;;;20.65;43.90;94384.03;4993187;28;20043;-77
2023/08/11 10:01:07;;;;;;;4.15;3.13;;;;;;;20.58;42.66;94368.53;4994065;28;20058;-78
2023/08/11 10:03:40;;;;;;;5.15;3.47;;;;;;;20.78;43.16;94380.00;4992742;28;20064;-78
2023/08/11 10:06:06;;;;;;;9.02;3.42;;;;;;;20.80;42.83;94380.41;4988166;28;20038;-79
2023/08/11 10:08:33;;;;;;;4.10;2.65;;;;;;;20.95;43.53;94385.69;5012223;28;20459;-78
2023/08/11 10:10:59;;;;;;;2.85;2.60;;;;;;;20.82;42.69;94380.84;4996577;28;20088;-78
2023/08/11 10:13:28;;;;;;;2.45;2.25;;;;;;;21.10;42.09;94383.19;4992356;28;20046;-78
2023/08/11 10:15:55;;;;;;;3.25;2.95;;;;;;;21.10;42.64;94378.56;4986987;28;20041;-78
2023/08/11 10:18:21;;;;;;;4.05;2.90;;;;;;;21.01;42.29;94353.72;4986813;28;20042;-77
2023/08/11 10:20:50;;;;;;;3.67;2.55;;;;;;;21.12;42.90;94372.81;4989431;28;20112;-79
2023/08/11 10:23:16;;;;;;;4.75;3.33;;;;;;;21.24;44.24;94373.34;4989816;28;20022;-78
2023/08/11 10:25:43;;;;;;;4.78;2.67;;;;;;;21.30;43.13;94366.47;4996666;28;20053;-77
2023/08/11 10:28:11;;;;;;;3.80;2.60;;;;;;;21.34;42.69;94356.47;4993201;28;20042;-78
2023/08/11 10:30:36;;;;;;;7.97;3.08;;;;;;;21.38;42.56;94357.28;4986264;28;20456;-77
2023/08/11 10:33:03;;;;;;;3.35;2.50;;;;;;;21.35;42.51;94362.66;4991615;28;20095;-77
2023/08/11 10:35:34;;;;;;;3.95;2.75;;;;;;;21.11;42.96;94358.50;4966630;28;20045;-78
2023/08/11 10:38:00;;;;;;;3.72;3.03;;;;;;;21.10;42.64;94358.84;4986859;28;20064;-79
2023/08/11 10:40:38;;;;;;;3.47;2.92;;;;;;;21.16;40.85;94344.66;4979989;28;20458;-77
2023/08/11 10:43:05;;;;;;;3.03;2.30;;;;;;;21.35;40.87;94358.03;4983323;28;20038;-79
2023/08/11 10:45:35;;;;;;;4.22;3.25;;;;;;;21.44;41.41;94353.13;4978161;28;20058;-77
2023/08/11 10:48:07;;;;;;;6.00;3.25;;;;;;;21.52;42.21;94345.84;4986881;28;20042;-77
2023/08/11 10:50:37;;;;;;;5.15;2.45;;;;;;;21.42;40.62;94349.97;5001924;28;20044;-79
2023/08/11 10:53:22;;;;;;;4.25;2.78;;;;;;;21.56;41.36;94345.94;4996688;28;20081;-77
2023/08/11 10:56:05;;;;;;;3.47;3.03;;;;;;;20.94;40.58;94350.91;4988433;28;20039;-78
2023/08/11 10:58:31;;;;;;;4.15;2.85;;;;;;;20.97;40.31;94336.69;4991924;28;20053;-78
2023/08/11 11:00:58;;;;;;;6.60;2.67;;;;;;;21.38;40.25;94354.56;4985098;28;20045;-77
2023/08/11 11:03:24;;;;;;;3.15;2.42;;;;;;;21.33;40.64;94338.66;4990797;28;20038;-78
2023/08/11 11:05:50;;;;;;;4.53;2.90;;;;;;;21.20;40.41;94333.88;4985592;28;20509;-78
2023/08/11 11:08:15;;;;;;;4.35;2.42;;;;;;;21.48;43.27;94349.66;4985468;28;20032;-78
2023/08/11 11:10:41;;;;;;;5.70;2.28;;;;;;;21.60;42.19;94352.16;4997939;28;20095;-78
2023/08/11 11:13:08;;;;;;;3.45;2.88;;;;;;;21.65;42.85;94354.53;4987259;28;20038;-78
2023/08/11 11:15:34;;;;;;;6.00;2.90;;;;;;;21.24;43.16;94357.13;4989842;28;20561;-79
2023/08/11 11:18:00;;;;;;;3.72;2.80;;;;;;;21.30;43.60;94355.66;4988427;28;20071;-79
2023/08/11 11:20:26;;;;;;;4.07;2.85;;;;;;;21.40;43.16;94340.69;4981759;28;20502;-78
2023/08/11 11:22:53;;;;;;;3.65;3.22;;;;;;;21.41;43.10;94347.66;4989081;28;20072;-78
2023/08/11 11:25:19;;;;;;;5.82;2.83;;;;;;;21.32;43.13;94342.50;4994455;28;20090;-78
2023/08/11 11:27:44;;;;;;;5.05;3.08;;;;;;;21.40;43.10;94356.94;4993775;28;20028;-80
2023/08/11 11:30:11;;;;;;;3.40;3.10;;;;;;;21.48;42.91;94347.72;4991168;28;20388;-77
2023/08/11 11:32:38;;;;;;;3.65;3.35;;;;;;;21.65;42.49;94359.94;4989623;28;20024;-79